createdAt,value
2019-02-12T00:01:00.289Z,26.67
2019-02-12T00:01:37.361Z,26.68
2019-02-12T00:02:15.959Z,26.68
2019-02-12T00:02:52.279Z,26.68
2019-02-12T00:03:28.395Z,26.69
2019-02-12T00:04:04.605Z,26.69
2019-02-12T00:04:40.661Z,26.68
2019-02-12T00:05:16.845Z,26.68
2019-02-12T00:05:53.059Z,26.67
2019-02-12T00:06:29.241Z,26.68
2019-02-12T00:07:05.393Z,26.68
2019-02-12T00:07:41.474Z,26.69
2019-02-12T00:08:17.614Z,26.68
2019-02-12T00:08:53.923Z,26.68
2019-02-12T00:09:30.127Z,26.68
2019-02-12T00:10:06.607Z,26.67
2019-02-12T00:10:42.875Z,26.67
2019-02-12T00:11:19.042Z,26.67
2019-02-12T00:11:55.344Z,26.66
2019-02-12T00:12:31.400Z,26.66
2019-02-12T00:13:07.507Z,26.66
2019-02-12T00:13:43.693Z,26.66
2019-02-12T00:14:19.826Z,26.65
2019-02-12T00:14:55.941Z,26.65
2019-02-12T00:15:32.145Z,26.66
2019-02-12T00:16:08.288Z,26.64
2019-02-12T00:16:44.521Z,26.63
2019-02-12T00:17:20.664Z,26.64
2019-02-12T00:17:56.980Z,26.64
2019-02-12T00:18:33.087Z,26.64
2019-02-12T00:19:09.241Z,26.64
2019-02-12T00:19:45.556Z,26.65
2019-02-12T00:20:21.859Z,26.65
2019-02-12T00:20:57.832Z,26.63
2019-02-12T00:21:33.968Z,26.62
2019-02-12T00:22:10.282Z,26.61
2019-02-12T00:22:46.608Z,26.63
2019-02-12T00:23:22.818Z,26.62
2019-02-12T00:23:59.523Z,26.61
2019-02-12T00:24:35.663Z,26.60
2019-02-12T00:25:11.846Z,26.59
2019-02-12T00:25:48.044Z,26.59
2019-02-12T00:26:24.301Z,26.60
2019-02-12T00:27:00.511Z,26.59
2019-02-12T00:27:36.623Z,26.60
2019-02-12T00:28:12.850Z,26.61
2019-02-12T00:28:48.973Z,26.61
2019-02-12T00:29:25.197Z,26.62
2019-02-12T00:30:01.204Z,26.63
2019-02-12T00:30:37.503Z,26.63
2019-02-12T00:31:13.543Z,26.64
2019-02-12T00:31:49.733Z,26.65
2019-02-12T00:32:25.988Z,26.66
2019-02-12T00:33:02.258Z,26.67
2019-02-12T00:33:38.576Z,26.68
2019-02-12T00:34:14.812Z,26.70
2019-02-12T00:34:51.081Z,26.71
2019-02-12T00:35:27.400Z,26.72
2019-02-12T00:36:03.580Z,26.74
2019-02-12T00:36:39.805Z,26.76
2019-02-12T00:37:16.101Z,26.77
2019-02-12T00:37:52.366Z,26.78
2019-02-12T00:38:28.555Z,26.78
2019-02-12T00:39:05.048Z,26.79
2019-02-12T00:39:41.099Z,26.81
2019-02-12T00:40:17.380Z,26.83
2019-02-12T00:40:53.419Z,26.83
2019-02-12T00:41:29.689Z,26.85
2019-02-12T00:42:05.964Z,26.85
2019-02-12T00:42:42.255Z,26.87
2019-02-12T00:43:18.481Z,26.88
2019-02-12T00:43:54.686Z,26.89
2019-02-12T00:44:30.763Z,26.90
2019-02-12T00:45:06.993Z,26.93
2019-02-12T00:45:43.011Z,26.96
2019-02-12T00:46:19.136Z,26.97
2019-02-12T00:46:55.340Z,27.00
2019-02-12T00:47:31.559Z,27.01
2019-02-12T00:48:07.839Z,27.05
2019-02-12T00:48:44.360Z,27.06
2019-02-12T00:49:20.437Z,27.08
2019-02-12T00:49:56.434Z,27.10
2019-02-12T00:50:32.563Z,27.13
2019-02-12T00:51:17.331Z,27.15
2019-02-12T00:51:46.631Z,27.17
2019-02-12T00:52:22.943Z,27.19
2019-02-12T00:52:59.270Z,27.22
2019-02-12T00:53:35.600Z,27.24
2019-02-12T00:54:11.951Z,27.27
2019-02-12T00:54:48.229Z,27.30
2019-02-12T00:55:24.360Z,27.33
2019-02-12T00:56:00.447Z,27.35
2019-02-12T00:56:36.549Z,27.38
2019-02-12T00:57:12.745Z,27.41
2019-02-12T00:57:48.753Z,27.43
2019-02-12T00:58:25.042Z,27.46
2019-02-12T00:59:01.049Z,27.47
2019-02-12T00:59:37.173Z,27.49
2019-02-12T01:00:14.665Z,27.51
2019-02-12T01:00:50.909Z,27.52
2019-02-12T01:01:27.085Z,27.56
2019-02-12T01:02:03.197Z,27.58
2019-02-12T01:02:39.493Z,27.60
2019-02-12T01:03:15.759Z,27.62
2019-02-12T01:03:51.953Z,27.63
2019-02-12T01:04:28.050Z,27.65
2019-02-12T01:05:04.469Z,27.66
2019-02-12T01:05:40.779Z,27.68
2019-02-12T01:06:17.021Z,27.71
2019-02-12T01:06:53.300Z,27.72
2019-02-12T01:07:29.480Z,27.73
2019-02-12T01:08:05.685Z,27.75
2019-02-12T01:08:42.024Z,27.79
2019-02-12T01:09:18.153Z,27.80
2019-02-12T01:09:54.300Z,27.82
2019-02-12T01:10:30.446Z,27.85
2019-02-12T01:11:06.601Z,27.88
2019-02-12T01:11:42.772Z,27.89
2019-02-12T01:12:19.036Z,27.93
2019-02-12T01:12:55.356Z,27.95
2019-02-12T01:13:31.723Z,27.96
2019-02-12T01:14:07.867Z,28.00
2019-02-12T01:14:43.963Z,28.04
2019-02-12T01:15:20.237Z,28.07
2019-02-12T01:15:56.495Z,28.11
2019-02-12T01:16:32.675Z,28.14
2019-02-12T01:17:08.890Z,28.16
2019-02-12T01:17:45.056Z,28.20
2019-02-12T01:18:21.217Z,28.24
2019-02-12T01:18:57.461Z,28.28
2019-02-12T01:19:33.687Z,28.31
2019-02-12T01:20:11.885Z,28.35
2019-02-12T01:20:48.058Z,28.40
2019-02-12T01:21:26.153Z,28.46
2019-02-12T01:22:02.256Z,28.52
2019-02-12T01:22:38.475Z,28.58
2019-02-12T01:23:14.624Z,28.61
2019-02-12T01:23:50.773Z,28.64
2019-02-12T01:24:26.922Z,28.68
2019-02-12T01:25:03.096Z,28.71
2019-02-12T01:25:39.274Z,28.76
2019-02-12T01:26:15.471Z,28.81
2019-02-12T01:26:51.675Z,28.88
2019-02-12T01:27:27.819Z,28.92
2019-02-12T01:28:03.922Z,29.14
2019-02-12T01:28:40.045Z,29.28
2019-02-12T01:29:16.149Z,29.38
2019-02-12T01:29:52.491Z,29.43
2019-02-12T01:30:28.676Z,29.54
2019-02-12T01:31:04.751Z,29.68
2019-02-12T01:31:40.892Z,29.76
2019-02-12T01:32:17.071Z,29.86
2019-02-12T01:32:53.197Z,30.03
2019-02-12T01:33:29.389Z,30.18
2019-02-12T01:34:05.538Z,30.18
2019-02-12T01:34:41.704Z,30.20
2019-02-12T01:35:17.811Z,30.33
2019-02-12T01:35:54.134Z,30.48
2019-02-12T01:36:30.438Z,30.46
2019-02-12T01:37:06.528Z,30.46
2019-02-12T01:37:42.702Z,30.56
2019-02-12T01:38:18.927Z,30.67
2019-02-12T01:38:55.053Z,30.67
2019-02-12T01:39:31.106Z,30.94
2019-02-12T01:40:07.941Z,30.94
2019-02-12T01:40:45.795Z,31.02
2019-02-12T01:41:21.942Z,31.06
2019-02-12T01:41:58.090Z,31.14
2019-02-12T01:42:34.417Z,31.20
2019-02-12T01:43:10.624Z,31.26
2019-02-12T01:43:46.906Z,31.32
2019-02-12T01:44:23.190Z,31.39
2019-02-12T01:44:59.463Z,31.45
2019-02-12T01:45:35.539Z,31.52
2019-02-12T01:46:11.769Z,31.57
2019-02-12T01:46:47.998Z,31.60
2019-02-12T01:47:24.229Z,31.65
2019-02-12T01:48:00.355Z,31.71
2019-02-12T01:48:36.554Z,31.75
2019-02-12T01:49:12.761Z,31.79
2019-02-12T01:49:49.031Z,31.84
2019-02-12T01:50:25.379Z,31.90
2019-02-12T01:51:01.628Z,31.94
2019-02-12T01:51:37.666Z,31.97
2019-02-12T01:52:13.795Z,32.03
2019-02-12T01:52:49.975Z,32.04
2019-02-12T01:53:26.211Z,32.10
2019-02-12T01:54:03.137Z,32.14
2019-02-12T01:54:39.777Z,32.17
2019-02-12T01:55:16.140Z,32.21
2019-02-12T01:55:52.477Z,32.25
2019-02-12T01:56:28.790Z,32.30
2019-02-12T01:57:05.130Z,32.35
2019-02-12T01:57:41.349Z,32.40
2019-02-12T01:58:17.746Z,32.46
2019-02-12T01:58:53.960Z,32.48
2019-02-12T01:59:30.481Z,32.52
2019-02-12T02:00:07.498Z,32.56
2019-02-12T02:00:43.916Z,32.61
2019-02-12T02:01:20.193Z,32.64
2019-02-12T02:01:56.741Z,32.70
2019-02-12T02:02:32.977Z,32.72
2019-02-12T02:03:09.252Z,32.80
2019-02-12T02:03:45.352Z,32.81
2019-02-12T02:04:21.722Z,32.84
2019-02-12T02:04:57.989Z,32.88
2019-02-12T02:05:34.241Z,32.93
2019-02-12T02:06:10.277Z,32.97
2019-02-12T02:06:46.322Z,33.01
2019-02-12T02:07:22.427Z,33.03
2019-02-12T02:07:58.543Z,33.07
2019-02-12T02:08:34.615Z,33.12
2019-02-12T02:09:10.906Z,33.18
2019-02-12T02:09:47.168Z,33.22
2019-02-12T02:10:23.221Z,33.25
2019-02-12T02:10:59.308Z,33.28
2019-02-12T02:11:35.437Z,33.30
2019-02-12T02:12:11.825Z,33.30
2019-02-12T02:12:48.119Z,33.34
2019-02-12T02:13:24.204Z,33.38
2019-02-12T02:14:00.261Z,33.43
2019-02-12T02:14:36.554Z,33.46
2019-02-12T02:15:13.203Z,33.48
2019-02-12T02:15:49.418Z,33.48
2019-02-12T02:16:25.563Z,33.54
2019-02-12T02:17:01.765Z,33.55
2019-02-12T02:17:37.961Z,33.49
2019-02-12T02:18:14.220Z,33.38
2019-02-12T02:18:50.305Z,33.31
2019-02-12T02:19:26.459Z,33.29
2019-02-12T02:20:02.599Z,33.32
2019-02-12T02:20:38.844Z,33.37
2019-02-12T02:21:15.103Z,33.36
2019-02-12T02:21:51.155Z,33.31
2019-02-12T02:22:27.361Z,33.22
2019-02-12T02:23:03.601Z,33.15
2019-02-12T02:23:39.705Z,33.18
2019-02-12T02:24:15.963Z,33.30
2019-02-12T02:24:52.148Z,33.39
2019-02-12T02:25:28.241Z,33.44
2019-02-12T02:26:04.351Z,33.49
2019-02-12T02:26:40.495Z,33.54
2019-02-12T02:27:16.757Z,33.58
2019-02-12T02:27:52.935Z,33.62
2019-02-12T02:28:29.184Z,33.66
2019-02-12T02:29:05.323Z,33.71
2019-02-12T02:29:41.527Z,33.77
2019-02-12T02:30:18.108Z,33.82
2019-02-12T02:30:54.181Z,33.85
2019-02-12T02:31:30.450Z,33.91
2019-02-12T02:32:06.686Z,33.96
2019-02-12T02:32:43.031Z,33.98
2019-02-12T02:33:19.257Z,34.00
2019-02-12T02:33:56.620Z,34.03
2019-02-12T02:34:32.738Z,34.06
2019-02-12T02:35:09.112Z,34.03
2019-02-12T02:35:45.406Z,34.02
2019-02-12T02:36:21.528Z,34.02
2019-02-12T02:36:57.653Z,34.01
2019-02-12T02:37:33.740Z,34.00
2019-02-12T02:38:09.988Z,34.02
2019-02-12T02:38:46.122Z,34.05
2019-02-12T02:39:22.191Z,34.08
2019-02-12T02:39:58.377Z,34.08
2019-02-12T02:40:34.639Z,34.09
2019-02-12T02:41:10.718Z,34.14
2019-02-12T02:41:46.901Z,34.17
2019-02-12T02:42:22.945Z,34.20
2019-02-12T02:42:59.427Z,34.26
2019-02-12T02:43:35.646Z,34.29
2019-02-12T02:44:11.878Z,34.33
2019-02-12T02:44:48.087Z,34.37
2019-02-12T02:45:24.321Z,34.38
2019-02-12T02:46:00.473Z,34.43
2019-02-12T02:46:36.710Z,34.46
2019-02-12T02:47:12.848Z,34.48
2019-02-12T02:47:49.141Z,34.51
2019-02-12T02:48:25.402Z,34.55
2019-02-12T02:49:01.466Z,34.59
2019-02-12T02:49:37.866Z,34.63
2019-02-12T02:50:14.183Z,34.67
2019-02-12T02:50:50.268Z,34.70
2019-02-12T02:51:26.469Z,34.71
2019-02-12T02:52:02.667Z,34.74
2019-02-12T02:52:38.882Z,34.73
2019-02-12T02:53:15.111Z,34.78
2019-02-12T02:53:51.227Z,34.81
2019-02-12T02:54:27.280Z,34.81
2019-02-12T02:55:03.461Z,34.86
2019-02-12T02:55:39.752Z,34.89
2019-02-12T02:56:15.964Z,34.93
2019-02-12T02:56:52.099Z,34.95
2019-02-12T02:57:28.248Z,34.95
2019-02-12T02:58:04.375Z,34.95
2019-02-12T02:58:40.514Z,34.97
2019-02-12T02:59:16.749Z,34.99
2019-02-12T02:59:53.024Z,35.04
2019-02-12T03:00:29.270Z,34.99
2019-02-12T03:01:05.453Z,34.93
2019-02-12T03:01:41.640Z,34.91
2019-02-12T03:02:17.782Z,34.96
2019-02-12T03:02:54.015Z,34.98
2019-02-12T03:03:30.283Z,35.03
2019-02-12T03:04:06.494Z,35.11
2019-02-12T03:04:42.793Z,35.07
2019-02-12T03:05:19.107Z,35.06
2019-02-12T03:05:55.274Z,35.05
2019-02-12T03:06:31.408Z,35.09
2019-02-12T03:07:07.439Z,35.10
2019-02-12T03:07:43.495Z,35.16
2019-02-12T03:08:19.609Z,35.24
2019-02-12T03:08:55.668Z,35.31
2019-02-12T03:09:31.796Z,35.36
2019-02-12T03:10:08.252Z,35.42
2019-02-12T03:10:44.386Z,35.47
2019-02-12T03:11:20.625Z,35.51
2019-02-12T03:11:56.758Z,35.51
2019-02-12T03:12:32.894Z,35.50
2019-02-12T03:13:09.157Z,35.54
2019-02-12T03:13:45.340Z,35.57
2019-02-12T03:14:21.615Z,35.57
2019-02-12T03:14:57.678Z,35.61
2019-02-12T03:15:33.850Z,35.65
2019-02-12T03:16:10.011Z,35.65
2019-02-12T03:16:46.185Z,35.68
2019-02-12T03:17:22.344Z,35.69
2019-02-12T03:17:58.515Z,35.73
2019-02-12T03:18:34.816Z,35.75
2019-02-12T03:19:11.096Z,35.80
2019-02-12T03:19:47.259Z,35.81
2019-02-12T03:20:23.496Z,35.76
2019-02-12T03:20:59.662Z,35.80
2019-02-12T03:21:35.905Z,35.82
2019-02-12T03:22:12.046Z,35.84
2019-02-12T03:22:48.139Z,35.86
2019-02-12T03:23:24.285Z,35.87
2019-02-12T03:24:00.410Z,35.87
2019-02-12T03:24:36.703Z,35.82
2019-02-12T03:25:12.969Z,35.83
2019-02-12T03:25:49.170Z,35.84
2019-02-12T03:26:25.543Z,35.83
2019-02-12T03:27:01.663Z,35.81
2019-02-12T03:27:38.018Z,35.81
2019-02-12T03:28:14.302Z,35.82
2019-02-12T03:28:50.375Z,35.82
2019-02-12T03:29:26.586Z,35.80
2019-02-12T03:30:02.699Z,35.75
2019-02-12T03:30:38.872Z,35.67
2019-02-12T03:31:14.979Z,35.72
2019-02-12T03:31:51.013Z,35.70
2019-02-12T03:32:27.187Z,35.74
2019-02-12T03:33:03.383Z,35.77
2019-02-12T03:33:39.707Z,35.79
2019-02-12T03:34:15.732Z,35.81
2019-02-12T03:34:51.991Z,35.83
2019-02-12T03:35:28.194Z,35.81
2019-02-12T03:36:04.433Z,35.85
2019-02-12T03:36:40.644Z,35.83
2019-02-12T03:37:16.958Z,35.86
2019-02-12T03:37:53.074Z,35.88
2019-02-12T03:38:29.207Z,35.95
2019-02-12T03:39:05.961Z,35.98
2019-02-12T03:39:42.117Z,36.03
2019-02-12T03:40:18.386Z,36.02
2019-02-12T03:40:54.554Z,36.05
2019-02-12T03:41:30.591Z,36.03
2019-02-12T03:42:06.780Z,36.01
2019-02-12T03:42:43.025Z,36.05
2019-02-12T03:43:19.319Z,36.11
2019-02-12T03:43:55.784Z,36.15
2019-02-12T03:44:32.072Z,36.16
2019-02-12T03:45:09.022Z,36.22
2019-02-12T03:45:45.149Z,36.27
2019-02-12T03:46:21.304Z,36.31
2019-02-12T03:46:57.547Z,36.36
2019-02-12T03:47:33.657Z,36.43
2019-02-12T03:48:09.964Z,36.42
2019-02-12T03:48:45.974Z,36.29
2019-02-12T03:49:22.171Z,36.34
2019-02-12T03:49:58.421Z,36.42
2019-02-12T03:50:34.738Z,36.48
2019-02-12T03:51:10.899Z,36.35
2019-02-12T03:51:47.152Z,36.26
2019-02-12T03:52:23.370Z,36.32
2019-02-12T03:52:59.572Z,36.33
2019-02-12T03:53:35.907Z,36.39
2019-02-12T03:54:12.038Z,36.42
2019-02-12T03:54:48.338Z,36.31
2019-02-12T03:55:24.645Z,36.32
2019-02-12T03:56:01.052Z,36.33
2019-02-12T03:56:37.177Z,36.35
2019-02-12T03:57:13.403Z,36.40
2019-02-12T03:57:49.588Z,36.40
2019-02-12T03:58:25.713Z,36.41
2019-02-12T03:59:01.885Z,36.44
2019-02-12T03:59:37.977Z,36.46
2019-02-12T04:00:15.604Z,36.47
2019-02-12T04:00:52.105Z,36.48
2019-02-12T04:01:28.171Z,36.48
2019-02-12T04:02:04.302Z,36.50
2019-02-12T04:02:53.985Z,36.47
2019-02-12T04:03:30.697Z,36.50
2019-02-12T04:04:06.927Z,36.51
2019-02-12T04:04:43.112Z,36.48
2019-02-12T04:05:19.289Z,36.42
2019-02-12T04:05:55.259Z,36.46
2019-02-12T04:06:31.418Z,36.50
2019-02-12T04:07:07.565Z,36.47
2019-02-12T04:07:43.656Z,36.41
2019-02-12T04:08:19.760Z,36.44
2019-02-12T04:08:56.009Z,36.38
2019-02-12T04:09:32.165Z,36.35
2019-02-12T04:10:08.398Z,36.27
2019-02-12T04:10:44.453Z,36.24
2019-02-12T04:11:20.762Z,36.14
2019-02-12T04:11:57.019Z,36.12
2019-02-12T04:12:33.337Z,36.15
2019-02-12T04:13:09.586Z,36.18
2019-02-12T04:13:45.894Z,36.25
2019-02-12T04:14:22.170Z,36.31
2019-02-12T04:14:58.440Z,36.42
2019-02-12T04:15:34.723Z,36.49
2019-02-12T04:16:10.768Z,36.57
2019-02-12T04:16:47.018Z,36.63
2019-02-12T04:17:23.217Z,36.64
2019-02-12T04:17:59.288Z,36.62
2019-02-12T04:18:35.358Z,36.58
2019-02-12T04:19:11.502Z,36.57
2019-02-12T04:19:47.560Z,36.54
2019-02-12T04:20:23.636Z,36.56
2019-02-12T04:20:59.960Z,36.58
2019-02-12T04:21:36.080Z,36.65
2019-02-12T04:22:12.190Z,36.70
2019-02-12T04:22:48.259Z,36.74
2019-02-12T04:23:24.584Z,36.78
2019-02-12T04:24:00.839Z,36.80
2019-02-12T04:24:37.001Z,36.89
2019-02-12T04:25:13.129Z,36.93
2019-02-12T04:25:49.266Z,37.00
2019-02-12T04:26:25.387Z,36.94
2019-02-12T04:27:01.468Z,36.85
2019-02-12T04:27:37.833Z,36.79
2019-02-12T04:28:14.971Z,36.76
2019-02-12T04:28:50.994Z,36.69
2019-02-12T04:29:27.178Z,36.70
2019-02-12T04:30:03.411Z,36.71
2019-02-12T04:30:39.474Z,36.73
2019-02-12T04:31:15.770Z,36.79
2019-02-12T04:31:51.950Z,36.78
2019-02-12T04:32:28.149Z,36.82
2019-02-12T04:33:04.318Z,36.70
2019-02-12T04:33:40.507Z,36.61
2019-02-12T04:34:16.829Z,36.65
2019-02-12T04:34:52.906Z,36.64
2019-02-12T04:35:29.064Z,36.67
2019-02-12T04:36:05.424Z,36.76
2019-02-12T04:36:41.730Z,36.83
2019-02-12T04:37:17.882Z,36.86
2019-02-12T04:37:54.120Z,36.92
2019-02-12T04:38:30.225Z,36.97
2019-02-12T04:39:07.115Z,37.03
2019-02-12T04:39:43.337Z,37.04
2019-02-12T04:40:19.513Z,37.10
2019-02-12T04:40:55.692Z,37.14
2019-02-12T04:41:31.921Z,37.15
2019-02-12T04:42:08.106Z,37.21
2019-02-12T04:42:44.297Z,37.24
2019-02-12T04:43:20.458Z,37.24
2019-02-12T04:43:56.569Z,37.23
2019-02-12T04:44:32.951Z,37.27
2019-02-12T04:45:09.881Z,37.28
2019-02-12T04:45:46.002Z,37.27
2019-02-12T04:46:22.132Z,37.31
2019-02-12T04:46:58.493Z,37.25
2019-02-12T04:47:34.656Z,37.21
2019-02-12T04:48:10.842Z,37.22
2019-02-12T04:48:46.995Z,37.21
2019-02-12T04:49:23.106Z,37.21
2019-02-12T04:49:59.276Z,37.21
2019-02-12T04:50:35.570Z,37.20
2019-02-12T04:51:11.664Z,37.21
2019-02-12T04:51:47.738Z,37.24
2019-02-12T04:52:31.754Z,37.20
2019-02-12T04:53:02.028Z,37.21
2019-02-12T04:53:38.280Z,37.25
2019-02-12T04:54:14.441Z,37.29
2019-02-12T04:54:50.595Z,37.34
2019-02-12T04:55:26.819Z,37.37
2019-02-12T04:56:02.965Z,37.37
2019-02-12T04:56:39.257Z,37.38
2019-02-12T04:57:15.509Z,37.43
2019-02-12T04:57:51.744Z,37.45
2019-02-12T04:58:27.923Z,37.46
2019-02-12T04:59:04.071Z,37.48
2019-02-12T04:59:40.279Z,37.48
2019-02-12T05:00:17.120Z,37.51
2019-02-12T05:00:53.232Z,37.53
2019-02-12T05:01:29.392Z,37.57
2019-02-12T05:02:05.461Z,37.54
2019-02-12T05:02:41.617Z,37.54
2019-02-12T05:03:17.658Z,37.53
2019-02-12T05:03:53.766Z,37.53
2019-02-12T05:04:29.969Z,37.53
2019-02-12T05:05:06.371Z,37.52
2019-02-12T05:05:42.678Z,37.53
2019-02-12T05:06:18.797Z,37.53
2019-02-12T05:06:54.914Z,37.54
2019-02-12T05:07:30.951Z,37.55
2019-02-12T05:08:07.122Z,37.56
2019-02-12T05:09:13.628Z,37.57
2019-02-12T05:09:52.051Z,37.58
2019-02-12T05:10:29.689Z,37.62
2019-02-12T05:11:06.253Z,37.63
2019-02-12T05:11:43.400Z,37.65
2019-02-12T05:12:21.419Z,37.64
2019-02-12T05:12:57.769Z,37.55
2019-02-12T05:13:33.977Z,37.54
2019-02-12T05:14:09.921Z,37.49
2019-02-12T05:14:46.476Z,37.44
2019-02-12T05:15:22.863Z,37.43
2019-02-12T05:15:58.997Z,37.42
2019-02-12T05:16:35.259Z,37.42
2019-02-12T05:17:11.570Z,37.44
2019-02-12T05:17:47.761Z,37.45
2019-02-12T05:18:23.971Z,37.43
2019-02-12T05:19:00.307Z,37.42
2019-02-12T05:19:36.485Z,37.43
2019-02-12T05:20:14.061Z,37.41
2019-02-12T05:20:50.285Z,37.42
2019-02-12T05:21:26.438Z,37.42
2019-02-12T05:22:02.761Z,37.42
2019-02-12T05:22:43.498Z,37.39
2019-02-12T05:23:16.956Z,37.36
2019-02-12T05:23:53.120Z,37.32
2019-02-12T05:24:29.175Z,37.26
2019-02-12T05:25:05.418Z,37.26
2019-02-12T05:25:41.541Z,37.15
2019-02-12T05:26:17.712Z,37.15
2019-02-12T05:26:53.987Z,37.14
2019-02-12T05:27:30.307Z,37.10
2019-02-12T05:28:06.513Z,37.10
2019-02-12T05:28:42.592Z,37.09
2019-02-12T05:29:18.870Z,37.06
2019-02-12T05:29:55.117Z,37.07
2019-02-12T05:30:31.481Z,36.99
2019-02-12T05:31:07.584Z,36.93
2019-02-12T05:31:43.749Z,36.87
2019-02-12T05:32:19.869Z,36.89
2019-02-12T05:32:55.963Z,36.90
2019-02-12T05:33:32.077Z,36.83
2019-02-12T05:34:08.329Z,36.86
2019-02-12T05:34:44.386Z,36.87
2019-02-12T05:35:20.440Z,36.83
2019-02-12T05:35:56.566Z,36.86
2019-02-12T05:36:32.716Z,36.80
2019-02-12T05:37:08.941Z,36.82
2019-02-12T05:37:45.165Z,36.84
2019-02-12T05:38:21.360Z,36.86
2019-02-12T05:38:57.594Z,36.84
2019-02-12T05:39:33.724Z,36.84
2019-02-12T05:40:10.204Z,36.84
2019-02-12T05:40:46.476Z,36.85
2019-02-12T05:41:22.621Z,36.86
2019-02-12T05:41:59.006Z,36.84
2019-02-12T05:42:35.299Z,36.87
2019-02-12T05:43:11.489Z,36.85
2019-02-12T05:43:47.694Z,36.87
2019-02-12T05:44:24.013Z,36.87
2019-02-12T05:45:00.303Z,36.86
2019-02-12T05:45:36.671Z,36.86
2019-02-12T05:46:12.881Z,36.82
2019-02-12T05:46:48.984Z,36.81
2019-02-12T05:47:25.228Z,36.78
2019-02-12T05:48:01.377Z,36.80
2019-02-12T05:48:37.564Z,36.82
2019-02-12T05:49:13.679Z,36.86
2019-02-12T05:49:49.884Z,36.87
2019-02-12T05:50:26.062Z,36.86
2019-02-12T05:51:02.385Z,36.88
2019-02-12T05:51:38.689Z,36.90
2019-02-12T05:52:14.942Z,36.91
2019-02-12T05:52:54.336Z,36.91
2019-02-12T05:53:29.014Z,36.89
2019-02-12T05:54:05.335Z,36.86
2019-02-12T05:54:41.459Z,36.90
2019-02-12T05:55:17.681Z,36.87
2019-02-12T05:55:53.980Z,36.89
2019-02-12T05:56:30.131Z,36.91
2019-02-12T05:57:06.357Z,36.85
2019-02-12T05:57:42.500Z,36.86
2019-02-12T05:58:18.551Z,36.88
2019-02-12T05:58:54.849Z,36.89
2019-02-12T05:59:30.917Z,36.89
2019-02-12T06:00:08.932Z,36.88
2019-02-12T06:00:45.046Z,36.87
2019-02-12T06:01:21.111Z,36.86
2019-02-12T06:01:57.365Z,36.89
2019-02-12T06:02:33.588Z,36.88
2019-02-12T06:03:09.852Z,36.89
2019-02-12T06:03:46.093Z,36.90
2019-02-12T06:04:22.191Z,36.88
2019-02-12T06:04:58.211Z,36.86
2019-02-12T06:05:34.219Z,36.81
2019-02-12T06:06:10.404Z,36.80
2019-02-12T06:06:46.641Z,36.82
2019-02-12T06:07:22.797Z,36.81
2019-02-12T06:07:58.968Z,36.83
2019-02-12T06:08:35.232Z,36.85
2019-02-12T06:09:11.304Z,36.86
2019-02-12T06:09:47.435Z,36.85
2019-02-12T06:10:23.642Z,36.82
2019-02-12T06:10:59.919Z,36.85
2019-02-12T06:11:36.126Z,36.86
2019-02-12T06:12:12.305Z,36.75
2019-02-12T06:12:48.500Z,36.73
2019-02-12T06:13:24.683Z,36.77
2019-02-12T06:14:00.808Z,36.75
2019-02-12T06:14:36.996Z,36.77
2019-02-12T06:15:13.297Z,36.78
2019-02-12T06:15:49.535Z,36.79
2019-02-12T06:16:25.883Z,36.83
2019-02-12T06:17:01.954Z,36.83
2019-02-12T06:17:38.115Z,36.85
2019-02-12T06:18:14.308Z,36.90
2019-02-12T06:18:50.470Z,36.91
2019-02-12T06:19:26.723Z,36.94
2019-02-12T06:20:02.836Z,36.95
2019-02-12T06:20:39.128Z,36.99
2019-02-12T06:21:15.610Z,37.00
2019-02-12T06:21:51.871Z,37.02
2019-02-12T06:22:28.078Z,37.04
2019-02-12T06:23:04.417Z,37.03
2019-02-12T06:23:40.615Z,37.07
2019-02-12T06:24:16.813Z,37.07
2019-02-12T06:24:53.056Z,37.05
2019-02-12T06:25:29.318Z,37.06
2019-02-12T06:26:05.463Z,37.06
2019-02-12T06:26:41.724Z,37.07
2019-02-12T06:27:17.867Z,37.08
2019-02-12T06:27:54.167Z,37.04
2019-02-12T06:28:30.258Z,37.01
2019-02-12T06:29:06.490Z,36.96
2019-02-12T06:29:42.784Z,36.98
2019-02-12T06:30:18.911Z,36.96
2019-02-12T06:30:55.145Z,36.97
2019-02-12T06:31:31.352Z,36.95
2019-02-12T06:32:07.453Z,36.95
2019-02-12T06:32:43.680Z,36.92
2019-02-12T06:33:19.830Z,36.93
2019-02-12T06:33:56.135Z,36.95
2019-02-12T06:34:32.307Z,36.97
2019-02-12T06:35:08.833Z,36.97
2019-02-12T06:35:45.061Z,36.97
2019-02-12T06:36:21.209Z,36.98
2019-02-12T06:36:57.387Z,36.91
2019-02-12T06:37:33.600Z,36.96
2019-02-12T06:38:09.685Z,36.98
2019-02-12T06:38:45.850Z,36.98
2019-02-12T06:39:22.002Z,37.00
2019-02-12T06:39:58.170Z,37.00
2019-02-12T06:40:34.307Z,37.01
2019-02-12T06:41:10.615Z,37.05
2019-02-12T06:41:46.825Z,37.06
2019-02-12T06:42:23.134Z,37.07
2019-02-12T06:42:59.240Z,37.06
2019-02-12T06:43:35.493Z,36.98
2019-02-12T06:44:11.648Z,36.93
2019-02-12T06:44:47.783Z,36.97
2019-02-12T06:45:24.077Z,36.99
2019-02-12T06:46:00.378Z,37.00
2019-02-12T06:46:36.664Z,37.05
2019-02-12T06:47:12.909Z,37.06
2019-02-12T06:47:49.246Z,37.06
2019-02-12T06:48:25.534Z,37.07
2019-02-12T06:49:01.602Z,37.09
2019-02-12T06:49:37.786Z,37.10
2019-02-12T06:50:14.057Z,37.11
2019-02-12T06:50:50.279Z,37.12
2019-02-12T06:51:26.423Z,37.14
2019-02-12T06:52:02.552Z,37.11
2019-02-12T06:52:38.713Z,37.13
2019-02-12T06:53:14.850Z,37.14
2019-02-12T06:53:51.027Z,37.14
2019-02-12T06:54:27.281Z,37.17
2019-02-12T06:55:03.586Z,37.17
2019-02-12T06:55:39.900Z,37.19
2019-02-12T06:56:16.207Z,37.16
2019-02-12T06:56:52.344Z,37.17
2019-02-12T06:57:28.485Z,37.15
2019-02-12T06:58:04.630Z,37.15
2019-02-12T06:58:40.885Z,37.17
2019-02-12T06:59:17.055Z,37.09
2019-02-12T06:59:53.192Z,37.08
2019-02-12T07:00:29.345Z,37.08
2019-02-12T07:01:05.537Z,37.06
2019-02-12T07:01:41.763Z,37.03
2019-02-12T07:02:51.931Z,37.01
2019-02-12T07:03:38.381Z,36.96
2019-02-12T07:04:20.552Z,36.96
2019-02-12T07:04:56.662Z,37.01
2019-02-12T07:05:35.070Z,36.99
2019-02-12T07:06:17.490Z,37.05
2019-02-12T07:07:32.640Z,37.02
2019-02-12T07:08:40.340Z,37.02
2019-02-12T07:09:23.540Z,36.98
2019-02-12T07:10:03.234Z,36.97
2019-02-12T07:10:40.403Z,36.96
2019-02-12T07:11:47.412Z,36.96
2019-02-12T07:12:56.021Z,36.96
2019-02-12T07:14:04.292Z,36.99
2019-02-12T07:15:29.036Z,37.00
2019-02-12T07:16:16.154Z,36.99
2019-02-12T07:17:43.927Z,36.95
2019-02-12T07:18:44.732Z,36.92
2019-02-12T07:19:52.130Z,36.88
2019-02-12T07:20:49.875Z,36.90
2019-02-12T07:22:21.402Z,36.89
2019-02-12T07:23:21.713Z,36.90
2019-02-12T07:24:59.006Z,36.91
2019-02-12T07:26:19.400Z,36.91
2019-02-12T07:27:27.284Z,36.82
2019-02-12T07:28:33.990Z,36.77
2019-02-12T07:29:34.226Z,36.74
2019-02-12T07:30:59.307Z,36.68
2019-02-12T07:32:21.320Z,36.63
2019-02-12T07:33:52.517Z,36.65
2019-02-12T07:34:38.146Z,36.63
2019-02-12T07:35:49.339Z,36.65
2019-02-12T07:37:00.574Z,36.64
2019-02-12T07:38:37.251Z,36.64
2019-02-12T07:39:59.158Z,36.63
2019-02-12T07:41:19.596Z,36.60
2019-02-12T07:42:05.937Z,36.63
2019-02-12T07:43:05.877Z,36.60
2019-02-12T07:44:20.563Z,36.59
2019-02-12T07:45:45.718Z,36.57
2019-02-12T07:47:08.547Z,36.56
2019-02-12T07:48:10.525Z,36.53
2019-02-12T07:49:01.549Z,36.53
2019-02-12T07:50:13.044Z,36.50
2019-02-12T07:50:57.218Z,36.50
2019-02-12T07:51:53.954Z,36.48
2019-02-12T07:52:57.973Z,36.51
2019-02-12T07:53:54.001Z,36.55
2019-02-12T07:54:45.759Z,36.58
2019-02-12T07:55:48.408Z,36.61
2019-02-12T07:57:06.303Z,36.62
2019-02-12T07:58:25.934Z,36.67
2019-02-12T07:59:30.289Z,36.67
2019-02-12T08:00:17.914Z,36.60
2019-02-12T08:01:41.285Z,36.62
2019-02-12T08:02:52.893Z,36.62
2019-02-12T08:04:13.300Z,36.61
2019-02-12T08:05:44.062Z,36.63
2019-02-12T08:07:00.057Z,36.62
2019-02-12T08:08:22.388Z,36.58
2019-02-12T08:09:43.315Z,36.60
2019-02-12T08:10:57.981Z,36.63
2019-02-12T08:11:49.185Z,36.65
2019-02-12T08:12:56.206Z,36.65
2019-02-12T08:14:06.509Z,36.65
2019-02-12T08:15:05.701Z,36.60
2019-02-12T08:16:15.480Z,36.61
2019-02-12T08:17:20.529Z,36.58
2019-02-12T08:18:29.693Z,36.53
2019-02-12T08:19:29.595Z,36.53
2019-02-12T08:20:31.992Z,36.50
2019-02-12T08:22:02.167Z,36.41
2019-02-12T08:23:30.098Z,36.43
2019-02-12T08:24:34.599Z,36.43
2019-02-12T08:25:36.514Z,36.44
2019-02-12T08:26:41.943Z,36.44
2019-02-12T08:27:46.776Z,36.42